PDT,Max TemperatureF,Mean TemperatureF,Min TemperatureF,Max Dew PointF,MeanDew PointF,Min DewpointF,Max Humidity, Mean Humidity, Min Humidity, Max Sea Level PressureIn, Mean Sea Level PressureIn, Min Sea Level PressureIn, Max VisibilityMiles, Mean VisibilityMiles, Min VisibilityMiles, Max Wind SpeedMPH, Mean Wind SpeedMPH, Max Gust SpeedMPH,PrecipitationIn, CloudCover, Events, WindDirDegrees
2012-10-1,98,78,57,55,50,37,86,50,13,30.01,29.93,29.85,10,10,10,7,1,12,0.00,0,,200
2012-10-2,99,78,57,55,50,38,80,46,12,29.89,29.83,29.75,10,10,10,6,0,12,0.00,0,,168
2012-10-3,95,76,57,53,48,41,77,47,17,29.91,29.84,29.79,10,10,10,9,2,13,0.00,0,,222
2012-10-4,76,67,58,54,52,50,80,62,43,30.07,30.01,29.91,10,10,10,18,10,26,0.00,0,,190
2012-10-5,76,66,56,53,51,50,86,64,41,30.13,30.08,30.04,10,10,10,15,6,28,0.00,0,,184
2012-10-6,75,64,53,52,50,46,93,66,38,30.06,30.01,29.94,10,10,10,10,4,14,0.00,0,,179
2012-10-7,78,65,52,52,49,47,93,65,36,30.00,29.95,29.89,10,10,10,9,4,16,0.00,0,,194
2012-10-8,75,64,52,50,48,44,83,60,36,30.01,29.98,29.95,10,10,10,13,6,17,0.00,0,,184
2012-10-9,76,64,51,51,48,40,96,64,31,30.03,29.97,29.92,10,10,6,9,2,15,0.00,0,,190
2012-10-10,78,64,49,50,48,45,86,59,32,29.94,29.89,29.83,10,10,10,10,3,15,0.00,0,,217
2012-10-11,65,59,52,50,49,48,89,73,56,29.96,29.89,29.85,10,10,10,18,6,29,0.00,1,,201
2012-10-12,63,59,54,50,48,46,83,72,60,30.22,30.09,29.96,10,10,10,9,3,45,0.00,6,,176
2012-10-13,76,62,48,55,48,46,93,66,38,30.30,30.23,30.15,10,10,7,10,2,16,0.00,0,,279
2012-10-14,80,66,51,56,52,48,89,64,39,30.22,30.14,30.05,10,10,10,7,3,9,0.00,0,,188
2012-10-15,85,69,53,55,54,51,93,63,32,30.08,30.01,29.92,10,10,10,12,3,14,0.00,0,,284
2012-10-16,89,75,61,60,56,49,84,57,29,29.97,29.91,29.83,10,10,10,8,4,12,0.00,0,,155
2012-10-17,86,71,56,47,36,29,43,28,13,29.92,29.87,29.82,10,10,8,20,9,25,0.00,0,,344
2012-10-18,87,71,54,59,50,46,77,52,27,30.00,29.95,29.89,10,10,10,8,3,12,0.00,0,,230
2012-10-19,80,71,61,60,56,51,90,65,39,30.04,29.96,29.88,10,10,10,13,7,17,0.00,0,,196
2012-10-20,77,66,54,54,51,47,93,68,43,29.88,29.82,29.75,10,10,10,13,5,17,0.00,0,,194
2012-10-21,66,59,51,46,41,34,77,53,29,29.91,29.84,29.80,10,10,10,13,5,22,0.00,1,Rain,184
2012-10-22,61,57,52,54,49,44,96,80,64,29.93,29.84,29.74,10,7,2,16,8,24,0.75,7,Rain,159
2012-10-23,62,57,51,48,45,38,89,66,42,30.06,30.00,29.93,10,10,7,12,5,15,0.06,2,Rain,186
2012-10-24,64,58,51,49,47,43,83,68,52,30.20,30.11,30.03,10,10,6,10,4,16,0.10,6,Rain,167
2012-10-25,67,60,53,49,45,37,83,63,42,30.28,30.23,30.20,10,10,10,20,6,25,0.00,3,,324
2012-10-26,74,61,47,45,38,34,66,46,25,30.24,30.16,30.08,10,10,10,13,5,16,0.00,0,,334
2012-10-27,79,63,47,53,48,44,93,64,35,30.08,30.02,29.94,10,10,10,8,0,10,0.00,0,,340
2012-10-28,79,65,50,55,50,47,89,63,37,30.01,29.98,29.94,10,10,10,6,0,10,0.00,0,,201
2012-10-29,79,65,50,54,52,48,93,66,39,30.11,30.05,30.01,10,9,3,7,1,12,0.00,0,,181
2012-10-30,75,63,50,55,51,47,96,71,46,30.07,30.01,29.94,10,8,0,7,1,12,0.00,1,Fog,205
2012-10-31,65,60,54,56,53,51,93,78,63,30.01,29.99,29.95,10,10,8,14,6,25,0.00,3,Rain,190